createdAt,value
2022-09-23T00:02:06.552Z,101961.88
2022-09-23T00:04:33.182Z,101967.28
2022-09-23T00:06:59.653Z,101969.22
2022-09-23T00:09:26.145Z,101963.78
2022-09-23T00:11:52.610Z,101965.72
2022-09-23T00:14:19.091Z,101964.91
2022-09-23T00:16:45.611Z,101955.19
2022-09-23T00:19:12.129Z,101956.69
2022-09-23T00:21:38.609Z,101954.31
2022-09-23T00:24:05.321Z,101953.88
2022-09-23T00:26:31.846Z,101949.22
2022-09-23T00:28:58.419Z,101956.59
2022-09-23T00:31:27.312Z,101946.06
2022-09-23T00:33:56.701Z,101946.88
2022-09-23T00:36:23.860Z,101946.06
2022-09-23T00:38:50.373Z,101943.72
2022-09-23T00:41:17.188Z,101941.34
2022-09-23T00:43:52.213Z,101933.19
2022-09-23T00:46:23.463Z,101935.00
2022-09-23T00:48:55.360Z,101933.88
2022-09-23T00:51:24.823Z,101932.28
2022-09-23T00:53:53.455Z,101929.13
2022-09-23T00:56:23.018Z,101925.53
2022-09-23T00:58:51.778Z,101919.66
2022-09-23T01:01:19.815Z,101920.47
2022-09-23T01:03:46.721Z,101922.72
2022-09-23T01:06:13.894Z,101910.63
2022-09-23T01:08:44.205Z,101915.63
2022-09-23T01:11:28.114Z,101920.69
2022-09-23T01:14:13.308Z,101921.06
2022-09-23T01:16:54.574Z,101922.19
2022-09-23T01:19:36.500Z,101924.09
2022-09-23T01:22:13.391Z,101920.16
2022-09-23T01:25:13.153Z,101921.66
2022-09-23T01:27:47.575Z,101916.13
2022-09-23T01:30:38.695Z,101913.72
2022-09-23T01:33:06.210Z,101916.81
2022-09-23T01:35:52.285Z,101910.94
2022-09-23T01:38:36.268Z,101912.75
2022-09-23T01:41:16.255Z,101900.66
2022-09-23T01:43:46.744Z,101895.94
2022-09-23T01:46:27.980Z,101890.50
2022-09-23T01:49:03.983Z,101897.84
2022-09-23T01:51:37.462Z,101895.50
2022-09-23T01:54:19.922Z,101899.78
2022-09-23T01:56:54.645Z,101893.91
2022-09-23T01:59:27.891Z,101893.81
2022-09-23T02:02:02.989Z,101895.28
2022-09-23T02:04:39.842Z,101896.09
2022-09-23T02:07:21.392Z,101888.72
2022-09-23T02:09:56.188Z,101893.38
2022-09-23T02:12:29.513Z,101894.50
2022-09-23T02:15:06.356Z,101892.13
2022-09-23T02:17:40.171Z,101886.59
2022-09-23T02:20:08.589Z,101886.16
2022-09-23T02:22:41.163Z,101888.44
2022-09-23T02:25:10.641Z,101874.41
2022-09-23T02:27:41.323Z,101869.31
2022-09-23T02:30:12.982Z,101863.44
2022-09-23T02:32:51.894Z,101862.22
2022-09-23T02:35:32.861Z,101860.31
2022-09-23T02:38:18.755Z,101856.78
2022-09-23T02:40:46.213Z,101848.19
2022-09-23T02:43:19.882Z,101854.44
2022-09-23T02:45:47.384Z,101848.56
2022-09-23T02:48:19.415Z,101845.41
2022-09-23T02:50:47.705Z,101843.34
2022-09-23T02:53:16.170Z,101839.78
2022-09-23T02:55:42.991Z,101836.63
2022-09-23T02:58:12.888Z,101831.88
2022-09-23T03:00:57.401Z,101838.44
2022-09-23T03:04:05.307Z,101837.22
2022-09-23T03:06:44.605Z,101832.56
2022-09-23T03:09:21.584Z,101834.13
2022-09-23T03:11:53.198Z,101830.19
2022-09-23T03:14:22.673Z,101832.81
2022-09-23T03:17:04.694Z,101829.28
2022-09-23T03:19:38.093Z,101819.13
2022-09-23T03:22:27.671Z,101827.59
2022-09-23T03:24:58.590Z,101814.75
2022-09-23T03:27:30.104Z,101817.47
2022-09-23T03:29:57.552Z,101822.53
2022-09-23T03:32:27.970Z,101824.13
2022-09-23T03:34:58.340Z,101819.84
2022-09-23T03:37:32.429Z,101817.91
2022-09-23T03:40:09.345Z,101817.00
2022-09-23T03:42:38.170Z,101813.19
2022-09-23T03:45:10.583Z,101811.25
2022-09-23T03:47:39.337Z,101810.47
2022-09-23T03:50:06.426Z,101805.81
2022-09-23T03:52:32.883Z,101808.19
2022-09-23T03:54:59.453Z,101803.91
2022-09-23T03:57:26.094Z,101797.69
2022-09-23T03:59:52.916Z,101803.44
2022-09-23T04:02:20.548Z,101798.03
2022-09-23T04:04:47.308Z,101793.38
2022-09-23T04:07:14.747Z,101796.91
2022-09-23T04:09:41.632Z,101789.09
2022-09-23T04:12:11.719Z,101785.25
2022-09-23T04:14:38.382Z,101791.03
2022-09-23T04:17:05.049Z,101794.53
2022-09-23T04:19:31.526Z,101791.81
2022-09-23T04:21:58.092Z,101792.59
2022-09-23T04:24:24.671Z,101790.34
2022-09-23T04:26:53.476Z,101788.78
2022-09-23T04:29:20.625Z,101784.47
2022-09-23T04:31:47.807Z,101791.81
2022-09-23T04:34:15.954Z,101783.69
2022-09-23T04:36:42.828Z,101785.59
2022-09-23T04:39:09.327Z,101775.88
2022-09-23T04:41:35.904Z,101782.91
2022-09-23T04:44:02.838Z,101780.63
2022-09-23T04:46:29.472Z,101775.63
2022-09-23T04:48:55.957Z,101779.47
2022-09-23T04:51:24.852Z,101782.66
2022-09-23T04:53:53.116Z,101780.72
2022-09-23T04:56:22.742Z,101781.50
2022-09-23T04:58:50.737Z,101788.50
2022-09-23T05:01:25.690Z,101783.09
2022-09-23T05:03:54.359Z,101784.66
2022-09-23T05:06:22.020Z,101779.59
2022-09-23T05:08:51.056Z,101773.81
2022-09-23T05:11:18.724Z,101775.03
2022-09-23T05:13:50.497Z,101777.84
2022-09-23T05:16:17.805Z,101776.72
2022-09-23T05:18:45.903Z,101770.94
2022-09-23T05:21:14.261Z,101773.31
2022-09-23T05:23:41.987Z,101773.78
2022-09-23T05:26:11.181Z,101786.63
2022-09-23T05:28:39.340Z,101778.94
2022-09-23T05:31:08.746Z,101781.31
2022-09-23T05:33:37.005Z,101785.25
2022-09-23T05:36:04.143Z,101783.00
2022-09-23T05:38:31.763Z,101785.38
2022-09-23T05:41:00.253Z,101787.72
2022-09-23T05:43:27.416Z,101784.22
2022-09-23T05:46:07.745Z,101791.22
2022-09-23T05:48:35.910Z,101787.38
2022-09-23T05:51:03.026Z,101792.88
2022-09-23T05:53:31.736Z,101784.06
2022-09-23T05:55:58.322Z,101781.41
2022-09-23T05:58:25.468Z,101788.88
2022-09-23T06:00:52.353Z,101787.06
2022-09-23T06:03:20.613Z,101789.78
2022-09-23T06:05:48.466Z,101790.22
2022-09-23T06:08:15.457Z,101789.06
2022-09-23T06:10:44.646Z,101787.59
2022-09-23T06:13:11.583Z,101791.19
2022-09-23T06:15:39.302Z,101788.13
2022-09-23T06:18:06.617Z,101788.19
2022-09-23T06:20:35.478Z,101787.53
2022-09-23T06:23:08.810Z,101789.88
2022-09-23T06:25:39.434Z,101781.38
2022-09-23T06:28:11.301Z,101781.91
2022-09-23T06:30:39.356Z,101773.41
2022-09-23T06:33:05.853Z,101775.44
2022-09-23T06:35:33.374Z,101777.44
2022-09-23T06:38:03.828Z,101774.81
2022-09-23T06:40:31.382Z,101774.13
2022-09-23T06:43:00.986Z,101775.34
2022-09-23T06:45:28.613Z,101775.06
2022-09-23T06:47:56.768Z,101779.47
2022-09-23T06:50:26.364Z,101779.19
2022-09-23T06:52:56.082Z,101777.78
2022-09-23T06:55:24.865Z,101783.72
2022-09-23T06:57:51.437Z,101781.16
2022-09-23T07:00:18.398Z,101778.97
2022-09-23T07:02:45.198Z,101784.94
2022-09-23T07:05:12.216Z,101780.81
2022-09-23T07:07:39.423Z,101782.56
2022-09-23T07:10:06.808Z,101780.78
2022-09-23T07:12:34.221Z,101779.00
2022-09-23T07:15:01.017Z,101776.44
2022-09-23T07:17:27.907Z,101781.22
2022-09-23T07:19:55.051Z,101773.94
2022-09-23T07:22:23.357Z,101773.28
2022-09-23T07:24:49.948Z,101769.94
2022-09-23T07:27:19.399Z,101771.19
2022-09-23T07:29:48.987Z,101761.25
2022-09-23T07:32:16.699Z,101765.25
2022-09-23T07:34:43.339Z,101765.72
2022-09-23T07:37:10.661Z,101769.75
2022-09-23T07:39:37.457Z,101777.59
2022-09-23T07:42:05.294Z,101781.63
2022-09-23T07:44:33.034Z,101777.81
2022-09-23T07:47:00.419Z,101772.06
2022-09-23T07:49:27.706Z,101785.81
2022-09-23T07:51:54.265Z,101778.91
2022-09-23T07:54:21.538Z,101783.69
2022-09-23T07:56:48.209Z,101779.16
2022-09-23T07:59:18.231Z,101789.00
2022-09-23T08:01:48.477Z,101792.31
2022-09-23T08:04:23.015Z,101785.38
2022-09-23T08:06:55.100Z,101784.34
2022-09-23T08:09:25.250Z,101782.09
2022-09-23T08:11:52.530Z,101782.25
2022-09-23T08:14:19.333Z,101782.38
2022-09-23T08:16:47.194Z,101775.44
2022-09-23T08:19:14.663Z,101781.72
2022-09-23T08:21:41.996Z,101786.84
2022-09-23T08:24:12.621Z,101782.66
2022-09-23T08:26:39.175Z,101781.97
2022-09-23T08:29:06.867Z,101787.50
2022-09-23T08:31:33.493Z,101789.94
2022-09-23T08:34:00.208Z,101784.16
2022-09-23T08:36:27.187Z,101781.06
2022-09-23T08:38:55.310Z,101776.88
2022-09-23T08:41:28.049Z,101771.88
2022-09-23T08:43:59.402Z,101774.69
2022-09-23T08:46:31.849Z,101779.81
2022-09-23T08:49:00.412Z,101780.28
2022-09-23T08:51:44.744Z,101778.03
2022-09-23T08:54:12.789Z,101776.13
2022-09-23T08:56:43.581Z,101788.34
2022-09-23T08:59:21.258Z,101782.13
2022-09-23T09:01:56.996Z,101782.16
2022-09-23T09:04:46.097Z,101782.19
2022-09-23T09:10:14.543Z,101783.47
2022-09-23T09:12:49.382Z,101787.00
2022-09-23T09:15:24.637Z,101777.69
2022-09-23T09:18:08.033Z,101783.97
2022-09-23T09:20:40.214Z,101779.69
2022-09-23T09:23:21.601Z,101775.03
2022-09-23T09:25:50.923Z,101780.53
2022-09-23T09:28:31.092Z,101781.72
2022-09-23T09:31:01.609Z,101778.25
2022-09-23T09:33:38.335Z,101776.31
2022-09-23T09:36:20.877Z,101769.72
2022-09-23T09:38:47.408Z,101771.69
2022-09-23T09:41:17.861Z,101772.88
2022-09-23T09:43:56.358Z,101762.38
2022-09-23T09:46:24.951Z,101764.34
2022-09-23T09:48:53.665Z,101763.56
2022-09-23T09:51:22.490Z,101772.59
2022-09-23T09:53:52.135Z,101767.97
2022-09-23T09:56:26.840Z,101760.94
2022-09-23T09:58:58.703Z,101765.31
2022-09-23T10:01:28.873Z,101758.72
2022-09-23T10:03:59.501Z,101759.13
2022-09-23T10:06:32.591Z,101760.78
2022-09-23T10:09:03.314Z,101761.19
2022-09-23T10:11:31.082Z,101762.38
2022-09-23T10:14:01.121Z,101754.16
2022-09-23T10:16:31.620Z,101751.84
2022-09-23T10:19:00.410Z,101744.81
2022-09-23T10:21:34.761Z,101746.00
2022-09-23T10:24:05.616Z,101733.88
2022-09-23T10:26:42.624Z,101733.13
2022-09-23T10:29:24.274Z,101734.28
2022-09-23T10:32:22.611Z,101731.97
2022-09-23T10:35:08.994Z,101729.63
2022-09-23T10:38:33.611Z,101730.06
2022-09-23T10:41:20.840Z,101726.91
2022-09-23T10:44:11.662Z,101728.88
2022-09-23T10:46:47.147Z,101733.56
2022-09-23T10:49:41.170Z,101727.31
2022-09-23T10:52:15.044Z,101733.97
2022-09-23T10:55:00.908Z,101733.97
2022-09-23T10:57:46.996Z,101739.47
2022-09-23T11:00:22.228Z,101737.50
2022-09-23T11:03:00.307Z,101736.72
2022-09-23T11:05:41.416Z,101737.88
2022-09-23T11:08:36.394Z,101735.94
2022-09-23T11:11:18.880Z,101731.63
2022-09-23T11:14:08.106Z,101737.50
2022-09-23T11:16:43.086Z,101728.50
2022-09-23T11:19:26.387Z,101730.84
2022-09-23T11:21:56.145Z,101726.16
2022-09-23T11:24:58.624Z,101724.19
2022-09-23T11:27:47.128Z,101735.94
2022-09-23T11:30:20.160Z,101728.13
2022-09-23T11:35:47.729Z,101725.75
2022-09-23T11:38:21.411Z,101727.34
2022-09-23T11:40:54.771Z,101715.97
2022-09-23T11:43:29.229Z,101719.50
2022-09-23T11:46:10.548Z,101717.94
2022-09-23T11:48:45.755Z,101721.84
2022-09-23T11:51:17.958Z,101712.03
2022-09-23T11:53:47.373Z,101710.84
2022-09-23T11:56:35.496Z,101704.56
2022-09-23T11:59:36.123Z,101707.66
2022-09-23T12:02:20.747Z,101712.34
2022-09-23T12:04:58.648Z,101702.97
2022-09-23T12:07:44.527Z,101699.41
2022-09-23T12:10:11.983Z,101695.09
2022-09-23T12:12:58.404Z,101697.41
2022-09-23T12:15:37.407Z,101695.44
2022-09-23T12:18:11.473Z,101692.28
2022-09-23T12:21:02.896Z,101690.72
2022-09-23T12:23:41.835Z,101689.16
2022-09-23T12:26:17.271Z,101693.09
2022-09-23T12:28:49.032Z,101680.94
2022-09-23T12:31:21.911Z,101678.19
2022-09-23T12:33:55.147Z,101674.25
2022-09-23T12:36:29.784Z,101668.00
2022-09-23T12:39:16.270Z,101666.44
2022-09-23T12:41:46.349Z,101673.88
2022-09-23T12:44:14.788Z,101667.22
2022-09-23T12:46:43.725Z,101674.25
2022-09-23T12:49:30.068Z,101673.88
2022-09-23T12:52:27.056Z,101667.19
2022-09-23T12:55:19.036Z,101666.78
2022-09-23T12:57:45.690Z,101662.47
2022-09-23T13:00:13.535Z,101660.50
2022-09-23T13:03:10.759Z,101664.00
2022-09-23T13:06:09.263Z,101662.41
2022-09-23T13:08:39.083Z,101660.44
2022-09-23T13:11:14.889Z,101665.09
2022-09-23T13:13:44.654Z,101664.72
2022-09-23T13:16:29.295Z,101653.31
2022-09-23T13:19:03.338Z,101655.66
2022-09-23T13:21:43.079Z,101654.84
2022-09-23T13:24:13.693Z,101649.34
2022-09-23T13:26:45.789Z,101654.50
2022-09-23T13:29:20.711Z,101646.25
2022-09-23T13:31:47.762Z,101644.69
2022-09-23T13:34:19.633Z,101645.88
2022-09-23T13:36:48.128Z,101640.78
2022-09-23T13:39:22.601Z,101640.00
2022-09-23T13:41:51.905Z,101638.47
2022-09-23T13:44:20.179Z,101644.34
2022-09-23T13:46:51.450Z,101642.75
2022-09-23T13:49:24.402Z,101642.75
2022-09-23T13:51:53.482Z,101634.06
2022-09-23T13:54:33.441Z,101628.16
2022-09-23T13:57:00.548Z,101625.78
2022-09-23T13:59:30.239Z,101632.06
2022-09-23T14:02:06.863Z,101634.38
2022-09-23T14:04:33.524Z,101635.56
2022-09-23T14:07:01.505Z,101630.06
2022-09-23T14:09:30.328Z,101619.06
2022-09-23T14:11:59.677Z,101619.81
2022-09-23T14:14:28.152Z,101611.94
2022-09-23T14:16:56.149Z,101612.69
2022-09-23T14:19:24.859Z,101612.31
2022-09-23T14:21:53.741Z,101612.25
2022-09-23T14:24:30.464Z,101611.47
2022-09-23T14:27:10.900Z,101609.94
2022-09-23T14:29:40.488Z,101600.16
2022-09-23T14:32:13.473Z,101598.97
2022-09-23T14:34:43.949Z,101600.94
2022-09-23T14:37:42.636Z,101600.94
2022-09-23T14:40:19.023Z,101597.00
2022-09-23T14:42:51.434Z,101593.09
2022-09-23T14:45:24.637Z,101598.97
2022-09-23T14:47:58.033Z,101591.16
2022-09-23T14:50:37.127Z,101589.63
2022-09-23T14:53:04.736Z,101593.16
2022-09-23T14:55:31.520Z,101588.50
2022-09-23T14:58:05.159Z,101579.50
2022-09-23T15:00:32.151Z,101584.19
2022-09-23T15:03:02.702Z,101581.50
2022-09-23T15:05:40.246Z,101576.41
2022-09-23T15:08:07.398Z,101581.19
2022-09-23T15:10:37.582Z,101573.72
2022-09-23T15:13:11.534Z,101580.03
2022-09-23T15:15:38.297Z,101578.50
2022-09-23T15:18:11.332Z,101579.28
2022-09-23T15:20:37.990Z,101577.75
2022-09-23T15:23:04.562Z,101567.56
2022-09-23T15:25:40.273Z,101564.44
2022-09-23T15:28:10.671Z,101573.47
2022-09-23T15:30:39.041Z,101566.44
2022-09-23T15:33:06.392Z,101570.00
2022-09-23T15:35:33.403Z,101566.09
2022-09-23T15:38:02.760Z,101570.00
2022-09-23T15:40:33.805Z,101572.78
2022-09-23T15:43:07.625Z,101564.16
2022-09-23T15:45:38.431Z,101564.56
2022-09-23T15:48:10.753Z,101568.91
2022-09-23T15:50:38.080Z,101561.44
2022-09-23T15:53:07.286Z,101563.84
2022-09-23T15:55:35.965Z,101564.63
2022-09-23T15:58:03.143Z,101562.69
2022-09-23T16:00:30.606Z,101561.13
2022-09-23T16:02:57.234Z,101561.13
2022-09-23T16:05:33.143Z,101555.28
2022-09-23T16:08:03.727Z,101554.50
2022-09-23T16:10:34.081Z,101565.09
2022-09-23T16:13:03.026Z,101564.34
2022-09-23T16:15:31.808Z,101565.53
2022-09-23T16:20:50.262Z,101561.63
2022-09-23T16:23:34.459Z,101558.91
2022-09-23T16:26:21.804Z,101556.56
2022-09-23T16:28:50.017Z,101562.03
2022-09-23T16:31:16.637Z,101564.78
2022-09-23T16:33:44.307Z,101562.06
2022-09-23T16:36:31.969Z,101553.06
2022-09-23T16:39:01.594Z,101561.66
2022-09-23T16:41:29.748Z,101562.47
2022-09-23T16:43:56.892Z,101565.97
2022-09-23T16:46:24.890Z,101558.56
2022-09-23T16:48:53.770Z,101555.44
2022-09-23T16:51:23.894Z,101563.69
2022-09-23T16:53:52.549Z,101565.66
2022-09-23T16:56:25.810Z,101563.28
2022-09-23T16:58:55.773Z,101560.53
2022-09-23T17:01:44.319Z,101568.78
2022-09-23T17:04:12.069Z,101560.19
2022-09-23T17:07:02.731Z,101560.94
2022-09-23T17:09:30.397Z,101563.72
2022-09-23T17:12:09.357Z,101562.53
2022-09-23T17:14:35.877Z,101573.09
2022-09-23T17:17:02.457Z,101568.78
2022-09-23T17:19:29.347Z,101569.19
2022-09-23T17:21:56.360Z,101566.06
2022-09-23T17:24:24.082Z,101568.81
2022-09-23T17:26:53.381Z,101565.28
2022-09-23T17:29:20.489Z,101569.59
2022-09-23T17:31:47.221Z,101566.84
2022-09-23T17:34:13.921Z,101565.69
2022-09-23T17:36:40.616Z,101566.47
2022-09-23T17:39:07.491Z,101559.78
2022-09-23T17:41:34.203Z,101558.25
2022-09-23T17:44:00.990Z,101556.31
2022-09-23T17:46:30.091Z,101554.72
2022-09-23T17:48:57.200Z,101542.22
2022-09-23T17:51:25.347Z,101540.25
2022-09-23T17:53:52.301Z,101544.94
2022-09-23T17:56:26.556Z,101539.06
2022-09-23T17:58:53.889Z,101541.81
2022-09-23T18:01:23.952Z,101541.03
2022-09-23T18:03:56.363Z,101543.78
2022-09-23T18:06:25.653Z,101545.34
2022-09-23T18:08:52.727Z,101541.03
2022-09-23T18:11:21.177Z,101542.22
2022-09-23T18:13:51.172Z,101547.28
2022-09-23T18:16:18.351Z,101549.25
2022-09-23T18:18:50.238Z,101542.19
2022-09-23T18:21:16.878Z,101548.84
2022-09-23T18:23:43.434Z,101543.78
2022-09-23T18:26:15.419Z,101546.88
2022-09-23T18:28:43.121Z,101550.81
2022-09-23T18:31:10.844Z,101557.44
2022-09-23T18:33:39.227Z,101540.25
2022-09-23T18:36:06.211Z,101552.38
2022-09-23T18:38:33.335Z,101547.28
2022-09-23T18:41:00.560Z,101537.50
2022-09-23T18:43:40.752Z,101544.16
2022-09-23T18:46:13.435Z,101546.88
2022-09-23T18:49:19.021Z,101549.97
2022-09-23T18:51:50.979Z,101542.16
2022-09-23T18:54:19.452Z,101545.28
2022-09-23T18:56:47.767Z,101545.28
2022-09-23T18:59:17.755Z,101553.09
2022-09-23T19:01:45.934Z,101558.94
2022-09-23T19:04:16.110Z,101550.34
2022-09-23T19:06:42.783Z,101553.88
2022-09-23T19:09:09.395Z,101553.09
2022-09-23T19:11:36.573Z,101554.25
2022-09-23T19:14:05.892Z,101549.97
2022-09-23T19:16:34.182Z,101555.44
2022-09-23T19:19:02.111Z,101544.09
2022-09-23T19:21:30.877Z,101549.56
2022-09-23T19:24:03.714Z,101541.38
2022-09-23T19:26:34.296Z,101545.25
2022-09-23T19:29:03.419Z,101543.72
2022-09-23T19:31:33.487Z,101546.44
2022-09-23T19:34:04.564Z,101542.53
2022-09-23T19:36:34.614Z,101542.53
2022-09-23T19:39:03.945Z,101548.38
2022-09-23T19:41:32.164Z,101548.00
2022-09-23T19:44:03.635Z,101545.66
2022-09-23T19:46:32.046Z,101549.16
2022-09-23T19:49:00.171Z,101536.25
2022-09-23T19:51:27.550Z,101536.25
2022-09-23T19:53:54.169Z,101533.94
2022-09-23T19:56:20.684Z,101531.19
2022-09-23T19:58:54.227Z,101536.66
2022-09-23T20:01:21.935Z,101535.88
2022-09-23T20:03:49.064Z,101537.03
2022-09-23T20:06:16.652Z,101528.84
2022-09-23T20:08:45.577Z,101532.34
2022-09-23T20:11:15.000Z,101525.31
2022-09-23T20:13:44.016Z,101528.06
2022-09-23T20:16:13.919Z,101523.75
2022-09-23T20:18:41.843Z,101519.47
2022-09-23T20:21:11.947Z,101524.16
2022-09-23T20:23:38.559Z,101524.94
2022-09-23T20:26:24.540Z,101523.34
2022-09-23T20:28:51.354Z,101525.31
2022-09-23T20:31:20.790Z,101520.63
2022-09-23T20:33:54.208Z,101517.88
2022-09-23T20:36:21.605Z,101516.31
2022-09-23T20:38:48.337Z,101514.75
2022-09-23T20:41:17.221Z,101515.56
2022-09-23T20:43:43.839Z,101511.22
2022-09-23T20:46:10.356Z,101509.28
2022-09-23T20:48:37.886Z,101510.09
2022-09-23T20:51:06.847Z,101504.22
2022-09-23T20:53:34.502Z,101499.91
2022-09-23T20:56:01.527Z,101506.13
2022-09-23T20:58:30.775Z,101501.09
2022-09-23T21:01:05.603Z,101499.13
2022-09-23T21:03:32.838Z,101493.25
2022-09-23T21:06:06.932Z,101496.00
2022-09-23T21:08:35.507Z,101490.53
2022-09-23T21:11:04.955Z,101497.16
2022-09-23T21:13:33.631Z,101490.13
2022-09-23T21:16:05.589Z,101490.13
2022-09-23T21:18:32.224Z,101483.88
2022-09-23T21:21:00.855Z,101485.06
2022-09-23T21:23:29.303Z,101483.09
2022-09-23T21:26:07.477Z,101479.59
2022-09-23T21:28:37.108Z,101484.66
2022-09-23T21:31:06.972Z,101483.09
2022-09-23T21:33:36.617Z,101480.34
2022-09-23T21:36:05.652Z,101487.00
2022-09-23T21:38:36.641Z,101483.47
2022-09-23T21:41:06.668Z,101481.53
2022-09-23T21:43:35.167Z,101482.31
2022-09-23T21:46:05.112Z,101477.63
2022-09-23T21:48:33.875Z,101474.09
2022-09-23T21:51:04.570Z,101481.13
2022-09-23T21:53:33.113Z,101481.91
2022-09-23T21:56:03.570Z,101486.97
2022-09-23T21:58:32.016Z,101486.22
2022-09-23T22:00:58.873Z,101484.25
2022-09-23T22:03:25.747Z,101492.84
2022-09-23T22:06:03.809Z,101481.91
2022-09-23T22:08:36.749Z,101486.19
2022-09-23T22:11:05.682Z,101479.16
2022-09-23T22:13:32.537Z,101481.13
2022-09-23T22:16:02.218Z,101479.16
2022-09-23T22:18:28.765Z,101470.97
2022-09-23T22:20:57.795Z,101479.16
2022-09-23T22:23:24.968Z,101479.16
2022-09-23T22:26:02.122Z,101483.84
2022-09-23T22:28:50.331Z,101474.06
2022-09-23T22:31:35.589Z,101476.03
2022-09-23T22:34:02.107Z,101469.78
2022-09-23T22:36:28.599Z,101466.25
2022-09-23T22:38:59.031Z,101466.25
2022-09-23T22:41:26.279Z,101463.50
2022-09-23T22:43:53.858Z,101465.47
2022-09-23T22:46:22.745Z,101465.09
2022-09-23T22:48:52.215Z,101466.25
2022-09-23T22:51:22.224Z,101462.75
2022-09-23T22:53:49.489Z,101452.56
2022-09-23T22:56:16.197Z,101463.50
2022-09-23T22:58:42.972Z,101467.44
2022-09-23T23:01:11.803Z,101462.75
2022-09-23T23:03:40.297Z,101461.97
2022-09-23T23:06:08.808Z,101462.38
2022-09-23T23:08:36.181Z,101462.38
2022-09-23T23:11:09.957Z,101463.13
2022-09-23T23:13:39.186Z,101455.72
2022-09-23T23:16:07.187Z,101449.47
2022-09-23T23:18:35.752Z,101447.50
2022-09-23T23:21:08.798Z,101445.56
2022-09-23T23:23:38.425Z,101452.19
2022-09-23T23:26:09.821Z,101448.69
2022-09-23T23:28:36.511Z,101441.25
2022-09-23T23:31:04.795Z,101448.31
2022-09-23T23:33:31.648Z,101439.31
2022-09-23T23:35:58.125Z,101442.03
2022-09-23T23:38:24.903Z,101447.91
2022-09-23T23:40:52.599Z,101444.41
2022-09-23T23:43:19.820Z,101438.16
2022-09-23T23:45:46.596Z,101434.63
2022-09-23T23:48:13.529Z,101439.69
2022-09-23T23:50:40.074Z,101436.97
2022-09-23T23:53:06.593Z,101435.81
2022-09-23T23:55:38.126Z,101429.53
2022-09-23T23:58:04.592Z,101436.97
